createdAt,value
2017-07-11T00:02:08.920Z,18.10
2017-07-11T00:04:36.384Z,18.10
2017-07-11T00:07:03.937Z,18.10
2017-07-11T00:09:31.382Z,18.10
2017-07-11T00:11:58.951Z,18.00
2017-07-11T00:14:26.425Z,17.90
2017-07-11T00:16:54.672Z,17.80
2017-07-11T00:19:22.147Z,17.80
2017-07-11T00:21:49.679Z,17.80
2017-07-11T00:24:17.144Z,17.80
2017-07-11T00:26:44.715Z,17.80
2017-07-11T00:29:12.198Z,17.80
2017-07-11T00:31:39.671Z,17.70
2017-07-11T00:34:07.171Z,17.70
2017-07-11T00:36:34.753Z,17.70
2017-07-11T00:39:02.206Z,17.70
2017-07-11T00:41:29.758Z,17.70
2017-07-11T00:43:57.223Z,17.60
2017-07-11T00:46:24.773Z,17.60
2017-07-11T00:48:52.345Z,17.70
2017-07-11T00:51:20.611Z,17.80
2017-07-11T00:53:48.090Z,17.80
2017-07-11T00:56:16.320Z,17.80
2017-07-11T00:58:43.780Z,17.80
2017-07-11T01:01:11.269Z,17.80
2017-07-11T01:03:39.585Z,17.80
2017-07-11T01:06:07.131Z,17.80
2017-07-11T01:08:34.652Z,17.80
2017-07-11T01:11:02.110Z,17.70
2017-07-11T01:13:29.566Z,17.60
2017-07-11T01:15:57.833Z,17.60
2017-07-11T01:18:25.409Z,17.60
2017-07-11T01:20:53.689Z,17.50
2017-07-11T01:23:21.954Z,17.50
2017-07-11T01:25:49.415Z,17.40
2017-07-11T01:28:17.679Z,17.40
2017-07-11T01:30:45.260Z,17.30
2017-07-11T01:33:13.495Z,17.40
2017-07-11T01:35:41.718Z,17.40
2017-07-11T01:38:09.959Z,17.40
2017-07-11T01:40:37.429Z,17.30
2017-07-11T01:43:05.653Z,17.30
2017-07-11T01:45:33.229Z,17.30
2017-07-11T01:48:00.709Z,17.30
2017-07-11T01:50:28.270Z,17.30
2017-07-11T01:52:55.838Z,17.30
2017-07-11T01:55:24.098Z,17.20
2017-07-11T01:57:52.646Z,17.20
2017-07-11T02:00:20.114Z,17.20
2017-07-11T02:02:47.599Z,17.20
2017-07-11T02:05:15.847Z,17.20
2017-07-11T02:07:43.326Z,17.10
2017-07-11T02:10:10.883Z,17.20
2017-07-11T02:12:38.536Z,17.10
2017-07-11T02:15:06.180Z,17.10
2017-07-11T02:17:33.669Z,17.10
2017-07-11T02:20:02.927Z,17.10
2017-07-11T02:22:30.450Z,17.00
2017-07-11T02:24:57.981Z,17.00
2017-07-11T02:27:25.446Z,17.00
2017-07-11T02:29:53.684Z,17.00
2017-07-11T02:32:21.168Z,17.00
2017-07-11T02:34:48.640Z,16.90
2017-07-11T02:37:16.906Z,16.90
2017-07-11T02:39:45.142Z,16.90
2017-07-11T02:42:12.633Z,16.90
2017-07-11T02:44:40.095Z,16.90
2017-07-11T02:47:08.366Z,16.80
2017-07-11T02:49:35.926Z,16.80
2017-07-11T02:52:03.435Z,16.90
2017-07-11T02:54:30.895Z,16.90
2017-07-11T02:56:58.388Z,16.90
2017-07-11T02:59:25.859Z,17.00
2017-07-11T03:01:53.323Z,17.00
2017-07-11T03:04:21.567Z,17.10
2017-07-11T03:06:49.143Z,17.10
2017-07-11T03:09:16.606Z,17.10
2017-07-11T03:11:44.843Z,17.20
2017-07-11T03:14:12.339Z,17.10
2017-07-11T03:16:39.899Z,17.20
2017-07-11T03:19:07.360Z,17.20
2017-07-11T03:21:35.630Z,17.30
2017-07-11T03:24:03.878Z,17.30
2017-07-11T03:26:31.366Z,17.30
2017-07-11T03:29:00.682Z,17.40
2017-07-11T03:31:28.142Z,17.40
2017-07-11T03:33:55.667Z,17.40
2017-07-11T03:36:23.183Z,17.50
2017-07-11T03:38:50.686Z,17.50
2017-07-11T03:41:18.238Z,17.50
2017-07-11T03:43:45.699Z,17.50
2017-07-11T03:46:13.270Z,17.50
2017-07-11T03:48:41.535Z,17.50
2017-07-11T03:51:09.820Z,17.50
2017-07-11T03:53:38.088Z,17.50
2017-07-11T03:56:05.554Z,17.50
2017-07-11T03:58:33.808Z,17.50
2017-07-11T04:01:01.286Z,17.50
2017-07-11T04:03:29.550Z,17.60
2017-07-11T04:05:57.027Z,17.50
2017-07-11T04:08:25.387Z,17.60
2017-07-11T04:10:53.653Z,17.60
2017-07-11T04:13:21.118Z,17.60
2017-07-11T04:15:49.394Z,17.60
2017-07-11T04:18:16.867Z,17.60
2017-07-11T04:20:45.108Z,17.70
2017-07-11T04:23:12.698Z,17.60
2017-07-11T04:25:40.946Z,17.70
2017-07-11T04:28:08.411Z,17.70
2017-07-11T04:30:35.879Z,17.70
2017-07-11T04:33:04.115Z,17.80
2017-07-11T04:35:31.585Z,17.80
2017-07-11T04:37:59.043Z,17.90
2017-07-11T04:40:26.516Z,18.00
2017-07-11T04:42:54.025Z,18.10
2017-07-11T04:45:21.498Z,18.20
2017-07-11T04:47:48.971Z,18.20
2017-07-11T04:50:16.447Z,18.20
2017-07-11T04:52:43.933Z,18.20
2017-07-11T04:55:11.408Z,18.20
2017-07-11T04:57:38.880Z,18.20
2017-07-11T05:00:06.355Z,18.30
2017-07-11T05:02:33.839Z,18.30
2017-07-11T05:05:02.075Z,18.30
2017-07-11T05:07:29.557Z,18.30
2017-07-11T05:09:57.025Z,18.30
2017-07-11T05:12:25.256Z,18.30
2017-07-11T05:14:52.727Z,18.30
2017-07-11T05:17:20.186Z,18.30
2017-07-11T05:19:47.695Z,18.30
2017-07-11T05:22:15.177Z,18.30
2017-07-11T05:24:42.670Z,18.30
2017-07-11T05:27:10.137Z,18.30
2017-07-11T05:29:38.376Z,18.40
2017-07-11T05:32:05.838Z,18.40
2017-07-11T05:34:33.298Z,18.40
2017-07-11T05:37:00.798Z,18.30
2017-07-11T05:39:28.360Z,18.30
2017-07-11T05:41:55.824Z,18.40
2017-07-11T05:44:23.298Z,18.40
2017-07-11T05:46:50.767Z,18.60
2017-07-11T05:49:18.240Z,18.90
2017-07-11T05:51:45.707Z,19.20
2017-07-11T05:54:13.261Z,19.40
2017-07-11T05:56:40.734Z,19.50
2017-07-11T05:59:08.247Z,19.50
2017-07-11T06:01:35.706Z,19.50
2017-07-11T06:04:03.181Z,19.40
2017-07-11T06:06:30.657Z,19.40
2017-07-11T06:08:58.114Z,19.40
2017-07-11T06:11:25.575Z,19.40
2017-07-11T06:13:53.337Z,19.40
2017-07-11T06:16:20.896Z,19.40
2017-07-11T06:18:48.367Z,19.70
2017-07-11T06:21:16.581Z,21.40
2017-07-11T06:23:44.054Z,21.30
2017-07-11T06:26:11.528Z,22.00
2017-07-11T06:28:39.015Z,23.00
2017-07-11T06:31:06.471Z,23.80
2017-07-11T06:33:34.707Z,24.20
2017-07-11T06:36:02.175Z,24.20
2017-07-11T06:38:29.648Z,24.10
2017-07-11T06:40:57.871Z,23.00
2017-07-11T06:43:25.351Z,22.90
2017-07-11T06:45:52.823Z,22.90
2017-07-11T06:48:20.295Z,22.50
2017-07-11T06:50:47.795Z,22.10
2017-07-11T06:53:15.268Z,21.90
2017-07-11T06:55:42.762Z,21.70
2017-07-11T06:58:11.000Z,21.20
2017-07-11T07:00:38.496Z,21.20
2017-07-11T07:03:05.949Z,21.00
2017-07-11T07:05:33.415Z,21.00
2017-07-11T07:08:01.638Z,20.80
2017-07-11T07:10:29.090Z,20.80
2017-07-11T07:12:56.576Z,20.80
2017-07-11T07:15:24.024Z,20.80
2017-07-11T07:17:51.501Z,20.80
2017-07-11T07:20:18.978Z,20.80
2017-07-11T07:22:46.433Z,20.80
2017-07-11T07:25:13.893Z,20.90
2017-07-11T07:27:41.355Z,20.90
2017-07-11T07:30:08.875Z,21.00
2017-07-11T07:32:36.337Z,21.20
2017-07-11T07:35:04.023Z,21.40
2017-07-11T07:37:31.468Z,21.40
2017-07-11T07:39:58.959Z,21.70
2017-07-11T07:42:26.419Z,22.20
2017-07-11T07:44:53.884Z,22.50
2017-07-11T07:47:21.342Z,22.40
2017-07-11T07:49:48.813Z,22.40
2017-07-11T07:52:16.288Z,22.70
2017-07-11T07:54:43.744Z,22.90
2017-07-11T07:57:11.213Z,23.10
2017-07-11T07:59:38.687Z,23.40
2017-07-11T08:02:06.901Z,23.30
2017-07-11T08:04:34.352Z,23.30
2017-07-11T08:07:01.819Z,23.40
2017-07-11T08:09:29.265Z,23.30
2017-07-11T08:11:56.715Z,23.10
2017-07-11T08:14:24.178Z,23.10
2017-07-11T08:16:51.635Z,23.20
2017-07-11T08:19:19.090Z,23.10
2017-07-11T08:21:46.557Z,22.80
2017-07-11T08:24:14.017Z,22.70
2017-07-11T08:26:41.513Z,22.80
2017-07-11T08:29:08.984Z,22.90
2017-07-11T08:31:37.229Z,23.30
2017-07-11T08:34:04.676Z,23.30
2017-07-11T08:36:32.126Z,23.40
2017-07-11T08:38:59.602Z,23.50
2017-07-11T08:41:27.058Z,23.30
2017-07-11T08:43:54.557Z,23.30
2017-07-11T08:46:22.027Z,23.40
2017-07-11T08:48:49.489Z,23.50
2017-07-11T08:51:16.966Z,23.50
2017-07-11T08:53:44.406Z,23.20
2017-07-11T08:56:11.875Z,23.40
2017-07-11T08:58:39.334Z,23.50
2017-07-11T09:01:06.790Z,23.70
2017-07-11T09:03:34.259Z,23.70
2017-07-11T09:06:01.710Z,23.50
2017-07-11T09:08:29.175Z,23.30
2017-07-11T09:10:56.683Z,23.10
2017-07-11T09:13:24.156Z,23.10
2017-07-11T09:15:54.840Z,22.80
2017-07-11T09:18:22.915Z,22.60
2017-07-11T09:20:54.091Z,22.20
2017-07-11T09:23:21.969Z,22.20
2017-07-11T09:25:49.540Z,22.20
2017-07-11T09:28:18.252Z,22.20
2017-07-11T09:30:46.502Z,22.00
2017-07-11T09:33:16.572Z,21.80
2017-07-11T09:35:45.977Z,21.70
2017-07-11T09:38:15.960Z,21.70
2017-07-11T09:40:43.685Z,21.60
2017-07-11T09:43:12.302Z,21.40
2017-07-11T09:45:40.165Z,21.10
2017-07-11T09:48:08.461Z,20.80
2017-07-11T09:50:36.703Z,20.40
2017-07-11T09:53:04.460Z,20.30
2017-07-11T09:55:32.509Z,20.10
2017-07-11T09:58:00.711Z,19.20
2017-07-11T10:00:30.167Z,18.80
2017-07-11T10:02:58.988Z,18.60
2017-07-11T10:05:29.088Z,18.50
2017-07-11T10:07:58.109Z,18.50
2017-07-11T10:10:26.410Z,18.60
2017-07-11T10:12:54.353Z,18.90
2017-07-11T10:15:22.967Z,18.80
2017-07-11T10:17:52.288Z,18.90
2017-07-11T10:20:22.447Z,18.90
2017-07-11T10:22:51.331Z,18.90
2017-07-11T10:25:19.853Z,19.10
2017-07-11T10:27:47.515Z,19.20
2017-07-11T10:30:15.151Z,19.40
2017-07-11T10:32:42.964Z,19.30
2017-07-11T10:35:10.562Z,19.40
2017-07-11T10:37:38.168Z,19.50
2017-07-11T10:40:06.687Z,19.70
2017-07-11T10:42:34.282Z,19.70
2017-07-11T10:45:02.199Z,20.00
2017-07-11T10:47:31.139Z,20.20
2017-07-11T10:49:58.613Z,20.40
2017-07-11T10:52:26.076Z,20.50
2017-07-11T10:54:54.366Z,20.90
2017-07-11T10:57:22.617Z,21.10
2017-07-11T10:59:50.086Z,21.10
2017-07-11T11:02:17.556Z,21.10
2017-07-11T11:04:45.827Z,20.60
2017-07-11T11:07:14.097Z,20.30
2017-07-11T11:09:42.376Z,20.30
2017-07-11T11:12:10.747Z,20.20
2017-07-11T11:14:38.228Z,20.20
2017-07-11T11:17:05.720Z,20.20
2017-07-11T11:19:33.219Z,20.20
2017-07-11T11:22:00.687Z,20.10
2017-07-11T11:24:28.188Z,20.10
2017-07-11T11:26:55.695Z,20.30
2017-07-11T11:29:24.001Z,20.40
2017-07-11T11:31:51.486Z,20.40
2017-07-11T11:34:19.006Z,20.50
2017-07-11T11:36:46.495Z,20.70
2017-07-11T11:39:14.035Z,20.70
2017-07-11T11:41:41.580Z,20.70
2017-07-11T11:44:09.040Z,20.80
2017-07-11T11:46:36.534Z,20.80
2017-07-11T11:49:04.010Z,20.90
2017-07-11T11:51:31.586Z,21.10
2017-07-11T11:53:59.835Z,21.40
2017-07-11T11:56:27.291Z,21.40
2017-07-11T11:58:54.776Z,21.80
2017-07-11T12:01:23.063Z,22.10
2017-07-11T12:03:51.283Z,22.30
2017-07-11T12:06:18.789Z,22.20
2017-07-11T12:08:47.012Z,22.00
2017-07-11T12:11:14.471Z,22.00
2017-07-11T12:13:41.947Z,21.60
2017-07-11T12:16:09.438Z,21.20
2017-07-11T12:18:37.702Z,20.60
2017-07-11T12:21:05.976Z,20.50
2017-07-11T12:23:33.443Z,20.50
2017-07-11T12:26:01.671Z,20.50
2017-07-11T12:28:29.259Z,20.50
2017-07-11T12:30:56.757Z,20.70
2017-07-11T12:33:24.259Z,20.70
2017-07-11T12:35:51.764Z,20.60
2017-07-11T12:38:19.222Z,20.50
2017-07-11T12:40:46.694Z,20.40
2017-07-11T12:43:14.166Z,20.10
2017-07-11T12:45:41.658Z,20.10
2017-07-11T12:48:09.230Z,20.10
2017-07-11T12:50:37.471Z,20.40
2017-07-11T12:53:05.138Z,20.40
2017-07-11T12:55:32.611Z,20.40
2017-07-11T12:58:00.078Z,20.60
2017-07-11T13:00:28.307Z,21.20
2017-07-11T13:02:55.797Z,21.20
2017-07-11T13:05:23.264Z,21.40
2017-07-11T13:07:51.513Z,21.80
2017-07-11T13:10:18.983Z,21.80
2017-07-11T13:12:46.448Z,22.00
2017-07-11T13:15:13.935Z,22.00
2017-07-11T13:17:41.515Z,22.00
2017-07-11T13:20:09.043Z,22.10
2017-07-11T13:22:37.298Z,22.40
2017-07-11T13:25:04.908Z,22.40
2017-07-11T13:27:32.393Z,22.60
2017-07-11T13:29:59.849Z,22.60
2017-07-11T13:32:27.426Z,22.40
2017-07-11T13:34:54.990Z,22.30
2017-07-11T13:37:22.482Z,22.30
2017-07-11T13:39:49.973Z,22.30
2017-07-11T13:42:17.455Z,22.40
2017-07-11T13:44:44.913Z,22.30
2017-07-11T13:47:12.668Z,22.20
2017-07-11T13:49:40.240Z,21.90
2017-07-11T13:52:07.722Z,22.00
2017-07-11T13:54:35.183Z,21.90
2017-07-11T13:57:02.647Z,22.10
2017-07-11T13:59:30.120Z,22.40
2017-07-11T14:01:57.637Z,22.60
2017-07-11T14:04:25.882Z,22.90
2017-07-11T14:06:53.338Z,22.80
2017-07-11T14:09:20.790Z,23.00
2017-07-11T14:11:48.367Z,23.10
2017-07-11T14:14:15.926Z,22.90
2017-07-11T14:16:43.471Z,22.80
2017-07-11T14:19:10.948Z,22.60
2017-07-11T14:21:39.179Z,22.40
2017-07-11T14:24:06.690Z,22.40
2017-07-11T14:26:34.954Z,22.70
2017-07-11T14:29:04.188Z,22.80
2017-07-11T14:31:31.667Z,22.80
2017-07-11T14:33:59.140Z,23.00
2017-07-11T14:36:26.611Z,23.10
2017-07-11T14:38:54.909Z,23.10
2017-07-11T14:41:22.504Z,23.00
2017-07-11T14:43:50.020Z,23.00
2017-07-11T14:46:18.269Z,22.90
2017-07-11T14:48:45.732Z,22.90
2017-07-11T14:51:13.224Z,22.90
2017-07-11T14:53:40.718Z,22.90
2017-07-11T14:56:08.237Z,23.00
2017-07-11T14:58:35.743Z,23.30
2017-07-11T15:01:04.030Z,23.50
2017-07-11T15:03:31.517Z,23.40
2017-07-11T15:05:58.956Z,23.30
2017-07-11T15:08:26.565Z,23.20
2017-07-11T15:10:54.130Z,23.10
2017-07-11T15:13:21.587Z,23.10
2017-07-11T15:15:49.050Z,23.10
2017-07-11T15:18:16.552Z,23.10
2017-07-11T15:20:44.058Z,23.10
2017-07-11T15:23:11.526Z,23.10
2017-07-11T15:25:38.994Z,23.10
2017-07-11T15:28:06.471Z,22.80
2017-07-11T15:30:34.010Z,22.70
2017-07-11T15:33:01.487Z,22.70
2017-07-11T15:35:28.959Z,22.80
2017-07-11T15:37:57.196Z,22.50
2017-07-11T15:40:24.683Z,22.50
2017-07-11T15:42:52.145Z,22.50
2017-07-11T15:45:19.627Z,22.50
2017-07-11T15:47:47.089Z,22.40
2017-07-11T15:50:14.575Z,22.60
2017-07-11T15:52:42.042Z,22.60
2017-07-11T15:55:09.507Z,22.50
2017-07-11T15:57:36.996Z,22.50
2017-07-11T16:00:05.223Z,22.70
2017-07-11T16:02:32.753Z,22.60
2017-07-11T16:05:00.232Z,22.80
2017-07-11T16:07:27.792Z,22.60
2017-07-11T16:09:55.292Z,22.50
2017-07-11T16:12:22.769Z,22.40
2017-07-11T16:14:50.260Z,22.40
2017-07-11T16:17:17.717Z,22.20
2017-07-11T16:19:45.227Z,22.10
2017-07-11T16:22:12.699Z,22.10
2017-07-11T16:24:40.163Z,22.10
2017-07-11T16:27:07.731Z,22.10
2017-07-11T16:29:35.218Z,22.20
2017-07-11T16:32:02.682Z,22.30
2017-07-11T16:34:30.175Z,22.30
2017-07-11T16:36:58.450Z,22.00
2017-07-11T16:39:26.710Z,21.80
2017-07-11T16:41:54.409Z,21.70
2017-07-11T16:44:21.894Z,21.50
2017-07-11T16:46:49.363Z,21.40
2017-07-11T16:49:16.863Z,21.20
2017-07-11T16:51:44.310Z,20.70
2017-07-11T16:54:11.783Z,20.20
2017-07-11T16:56:39.243Z,19.70
2017-07-11T16:59:06.745Z,19.40
2017-07-11T17:01:34.216Z,19.20
2017-07-11T17:04:01.668Z,18.90
2017-07-11T17:06:29.135Z,18.80
2017-07-11T17:08:56.630Z,18.70
2017-07-11T17:11:24.091Z,18.80
2017-07-11T17:13:51.534Z,18.70
2017-07-11T17:16:19.040Z,18.80
2017-07-11T17:41:53.690Z,18.70
2017-07-11T17:44:22.274Z,18.90
2017-07-11T17:46:50.536Z,19.00
2017-07-11T17:49:20.809Z,18.90
2017-07-11T17:51:49.143Z,19.00
2017-07-11T17:54:17.397Z,19.00
2017-07-11T17:56:44.891Z,18.90
2017-07-11T17:59:12.366Z,19.00
2017-07-11T18:01:41.675Z,19.00
2017-07-11T18:04:09.202Z,19.00
2017-07-11T18:06:37.434Z,19.00
2017-07-11T18:09:05.184Z,19.00
2017-07-11T18:11:32.678Z,18.90
2017-07-11T18:14:00.158Z,18.90
2017-07-11T18:16:27.690Z,18.80
2017-07-11T18:18:55.164Z,18.80
2017-07-11T18:21:22.705Z,18.70
2017-07-11T18:23:50.223Z,18.70
2017-07-11T18:26:17.690Z,18.70
2017-07-11T18:28:45.324Z,18.60
2017-07-11T18:31:12.821Z,18.60
2017-07-11T18:33:40.283Z,18.60
2017-07-11T18:36:07.775Z,18.50
2017-07-11T18:38:35.242Z,18.50
2017-07-11T18:41:02.703Z,18.40
2017-07-11T18:43:30.192Z,18.30
2017-07-11T18:45:57.680Z,18.00
2017-07-11T18:48:25.234Z,17.70
2017-07-11T18:50:52.703Z,17.60
2017-07-11T18:53:20.954Z,17.40
2017-07-11T18:55:48.565Z,17.40
2017-07-11T18:58:16.090Z,17.40
2017-07-11T19:00:43.551Z,17.40
2017-07-11T19:03:11.119Z,17.40
2017-07-11T19:05:39.623Z,17.30
2017-07-11T19:08:07.151Z,17.30
2017-07-11T19:10:35.428Z,17.20
2017-07-11T19:13:03.700Z,17.10
2017-07-11T19:15:31.987Z,17.10
2017-07-11T19:18:00.241Z,17.10
2017-07-11T19:20:27.713Z,17.00
2017-07-11T19:22:55.944Z,17.00
2017-07-11T19:25:23.417Z,16.90
2017-07-11T19:27:50.887Z,17.00
2017-07-11T19:30:18.352Z,17.00
2017-07-11T19:32:46.609Z,17.00
2017-07-11T19:35:14.075Z,17.00
2017-07-11T19:37:41.608Z,17.00
2017-07-11T19:40:09.078Z,16.90
2017-07-11T19:42:36.647Z,16.90
2017-07-11T19:45:04.129Z,16.90
2017-07-11T19:47:32.379Z,16.90
2017-07-11T19:49:59.872Z,16.90
2017-07-11T19:52:27.379Z,16.90
2017-07-11T19:54:54.872Z,16.90
2017-07-11T19:57:23.095Z,16.90
2017-07-11T19:59:50.580Z,16.90
2017-07-11T20:02:18.163Z,16.90
2017-07-11T20:04:45.652Z,16.90
2017-07-11T20:07:13.168Z,16.90
2017-07-11T20:09:40.645Z,16.90
2017-07-11T20:12:09.850Z,17.00
2017-07-11T20:14:41.266Z,17.00
2017-07-11T20:17:09.042Z,17.00
2017-07-11T20:19:37.182Z,17.00
2017-07-11T20:22:04.879Z,16.90
2017-07-11T20:24:33.126Z,17.00
2017-07-11T20:27:03.597Z,17.00
2017-07-11T20:29:31.549Z,16.90
2017-07-11T20:32:00.716Z,16.90
2017-07-11T20:34:29.820Z,16.90
2017-07-11T20:36:57.289Z,16.90
2017-07-11T20:39:25.575Z,17.00
2017-07-11T20:41:53.767Z,17.00
2017-07-11T20:44:22.142Z,17.00
2017-07-11T20:46:50.168Z,17.00
2017-07-11T20:49:17.751Z,17.10
2017-07-11T20:51:45.302Z,17.10
2017-07-11T20:54:12.780Z,17.10
2017-07-11T20:56:41.042Z,17.10
2017-07-11T20:59:09.489Z,17.10
2017-07-11T21:01:37.754Z,17.00
2017-07-11T21:04:05.230Z,17.00
2017-07-11T21:06:32.719Z,17.00
2017-07-11T21:09:01.005Z,17.10
2017-07-11T21:11:28.965Z,17.00
2017-07-11T21:13:56.460Z,17.10
2017-07-11T21:16:23.914Z,17.10
2017-07-11T21:18:53.471Z,17.10
2017-07-11T21:21:23.301Z,17.10
2017-07-11T21:23:52.804Z,17.10
2017-07-11T21:26:21.218Z,17.10
2017-07-11T21:28:49.725Z,17.10
2017-07-11T21:31:17.523Z,17.10
2017-07-11T21:33:45.765Z,17.10
2017-07-11T21:36:13.985Z,17.10
2017-07-11T21:38:42.590Z,17.10
2017-07-11T21:41:10.092Z,17.10
2017-07-11T21:43:37.584Z,17.10
2017-07-11T21:46:05.048Z,17.10
2017-07-11T21:48:32.520Z,17.10
2017-07-11T21:51:00.196Z,17.10
2017-07-11T21:53:28.488Z,17.10
2017-07-11T21:55:56.593Z,17.10
2017-07-11T21:58:24.856Z,17.00
2017-07-11T22:00:52.399Z,17.00
2017-07-11T22:03:19.910Z,17.10
2017-07-11T22:05:47.379Z,17.00
2017-07-11T22:08:14.879Z,17.00
2017-07-11T22:10:42.339Z,17.00
2017-07-11T22:13:09.884Z,17.00
2017-07-11T22:15:37.344Z,17.00
2017-07-11T22:18:04.811Z,17.00
2017-07-11T22:20:33.270Z,17.00
2017-07-11T22:23:00.755Z,17.00
2017-07-11T22:25:29.018Z,17.00
2017-07-11T22:27:57.293Z,17.00
2017-07-11T22:30:25.531Z,17.00
2017-07-11T22:32:53.008Z,17.00
2017-07-11T22:35:20.590Z,17.00
2017-07-11T22:37:48.861Z,17.00
2017-07-11T22:40:16.332Z,17.00
2017-07-11T22:42:44.570Z,16.90
2017-07-11T22:45:12.152Z,16.90
2017-07-11T22:47:40.149Z,16.90
2017-07-11T22:50:07.670Z,16.90
2017-07-11T22:52:35.227Z,16.80
2017-07-11T22:55:02.707Z,16.80
2017-07-11T22:57:31.057Z,16.70
2017-07-11T22:59:59.343Z,16.70
2017-07-11T23:02:26.835Z,16.70
2017-07-11T23:04:54.592Z,16.70
2017-07-11T23:07:22.933Z,16.50
2017-07-11T23:09:50.437Z,16.50
2017-07-11T23:12:17.930Z,16.50
2017-07-11T23:14:45.407Z,16.40
2017-07-11T23:17:12.867Z,16.40
2017-07-11T23:19:40.348Z,16.40
2017-07-11T23:22:08.598Z,16.20
2017-07-11T23:24:36.155Z,16.20
2017-07-11T23:27:03.629Z,16.20
2017-07-11T23:29:31.949Z,16.30
2017-07-11T23:31:59.460Z,16.20
2017-07-11T23:34:26.930Z,16.30
2017-07-11T23:36:55.163Z,16.30
2017-07-11T23:39:22.622Z,16.20
2017-07-11T23:41:50.203Z,16.20
2017-07-11T23:44:17.673Z,16.20
2017-07-11T23:46:45.930Z,16.20
2017-07-11T23:49:13.491Z,16.20
2017-07-11T23:51:40.948Z,16.30
2017-07-11T23:54:08.424Z,16.30
2017-07-11T23:56:36.785Z,16.30
2017-07-11T23:59:04.347Z,16.30
